Terminal Aerodrome Forecast
Issued by NWS

Home | Current Version | Previous Version | Text Only | Print | Product List | Glossary Off
Versions: 1 2 3 4 5 6 7 8 9 10 11 12 13 14 15 16 17 18 19

000
FTUS43 KMPX 230500
TAFRNH
TAF
KRNH 230534Z 2306/2406 16010KT P6SM SCT060 BKN080
     FM230700 17008KT P6SM -SHRA SCT020 OVC040
      TEMPO 2307/2310 4SM SHRA BR OVC020
     FM231000 18004KT 4SM BR BKN007 OVC012
     FM231400 20005KT P6SM SCT009 BKN015
     FM231800 23005KT P6SM SCT020
     FM240100 19003KT P6SM SKC=

USA.gov is the U.S. government's official web portal to all federal, state and local government web resources and services.